Time;durP1;ratioP1;P1;durP2;ratioP2;P2;SDS_P1;SDS_P2;PMS_P1;PMS_P2;Temp;Humidity;BMP_temperature;BMP_pressure;BME280_temperature;BME280_humidity;BME280_pressure;Samples;Min_cycle;Max_cycle;Signal;HPM_P1;HPM_P2
2021/12/03 00:00:02;;;;;;;6.60;1.17;;;;;;;0.88;70.68;99690.44;4958559;28;20054;-50
2021/12/03 00:02:29;;;;;;;8.13;1.17;;;;;;;0.89;69.50;99692.19;4962186;28;20066;-53
2021/12/03 00:04:55;;;;;;;4.28;1.23;;;;;;;0.91;70.37;99689.66;4958236;28;20101;-52
2021/12/03 00:07:22;;;;;;;2.47;1.27;;;;;;;0.91;70.01;99679.47;4957565;28;20248;-54
2021/12/03 00:09:48;;;;;;;5.63;1.27;;;;;;;0.92;70.03;99676.13;4959078;28;20051;-48
2021/12/03 00:12:15;;;;;;;4.25;1.10;;;;;;;0.95;69.92;99680.44;4963201;28;20050;-48
2021/12/03 00:14:42;;;;;;;4.90;1.35;;;;;;;0.93;68.96;99667.66;4963496;28;20054;-52
2021/12/03 00:17:08;;;;;;;3.15;0.90;;;;;;;0.95;70.04;99662.59;4968204;28;20065;-51
2021/12/03 00:19:35;;;;;;;2.65;0.80;;;;;;;0.97;69.91;99659.25;4963798;28;20043;-53
2021/12/03 00:22:02;;;;;;;7.85;0.90;;;;;;;1.00;69.26;99661.91;4964889;28;20100;-52
2021/12/03 00:24:28;;;;;;;3.80;0.95;;;;;;;0.99;69.88;99655.09;4966178;28;20514;-53
2021/12/03 00:26:55;;;;;;;3.03;1.23;;;;;;;1.02;69.09;99652.59;4958227;28;20354;-52
2021/12/03 00:29:21;;;;;;;3.25;1.10;;;;;;;1.06;70.25;99657.81;4959435;28;20105;-50
2021/12/03 00:31:48;;;;;;;6.10;0.90;;;;;;;1.06;69.85;99652.69;4964760;28;20043;-52
2021/12/03 00:34:15;;;;;;;3.08;0.80;;;;;;;1.06;70.22;99640.81;4968529;28;20102;-48
2021/12/03 00:36:41;;;;;;;4.28;1.25;;;;;;;1.09;69.94;99640.03;4965248;28;20043;-50
2021/12/03 00:39:08;;;;;;;2.63;0.80;;;;;;;1.10;70.53;99623.91;4964975;28;20055;-48
2021/12/03 00:41:42;;;;;;;4.13;0.90;;;;;;;1.08;70.54;99625.56;4965741;28;20047;-51
2021/12/03 00:44:08;;;;;;;2.13;0.50;;;;;;;1.07;70.30;99618.72;4961609;28;20047;-50
2021/12/03 00:46:35;;;;;;;2.05;0.60;;;;;;;1.06;70.70;99620.41;4963758;28;20051;-53
2021/12/03 00:49:02;;;;;;;2.15;1.02;;;;;;;1.02;71.09;99601.59;4961774;28;20046;-50
2021/12/03 00:51:28;;;;;;;4.07;0.57;;;;;;;1.00;71.30;99603.25;4967635;28;20442;-51
2021/12/03 00:53:55;;;;;;;3.78;0.95;;;;;;;1.00;71.10;99603.25;4964226;28;20653;-52
2021/12/03 00:56:23;;;;;;;3.53;0.38;;;;;;;0.98;71.29;99589.56;4965311;28;20047;-50
2021/12/03 00:58:49;;;;;;;1.40;0.32;;;;;;;0.96;72.05;99585.25;4966483;28;20390;-51
2021/12/03 01:01:17;;;;;;;2.80;0.50;;;;;;;0.97;72.16;99574.22;4968760;28;20635;-51
2021/12/03 01:03:44;;;;;;;2.03;0.73;;;;;;;0.95;72.09;99579.28;4964114;28;21548;-52
2021/12/03 01:06:11;;;;;;;3.05;0.63;;;;;;;0.91;72.47;99572.38;4962324;28;20498;-49
2021/12/03 01:08:38;;;;;;;2.97;0.52;;;;;;;0.92;73.12;99573.25;4963210;28;20975;-52
2021/12/03 01:11:07;;;;;;;3.30;1.08;;;;;;;0.90;72.27;99570.63;4964956;28;20046;-53
2021/12/03 01:13:35;;;;;;;1.27;0.22;;;;;;;0.91;73.04;99567.25;4963869;28;20098;-51
2021/12/03 01:16:03;;;;;;;1.33;0.60;;;;;;;0.90;73.10;99570.63;4967480;28;20490;-50
2021/12/03 01:18:30;;;;;;;3.30;0.68;;;;;;;0.87;73.98;99565.44;4965500;28;20113;-50
2021/12/03 01:20:56;;;;;;;2.33;0.47;;;;;;;0.88;73.42;99559.56;4965756;28;20537;-54
2021/12/03 01:23:23;;;;;;;2.05;0.50;;;;;;;0.90;73.10;99534.94;4964609;28;20046;-53
2021/12/03 01:25:50;;;;;;;3.95;1.10;;;;;;;0.87;73.63;99545.06;4966259;28;21443;-56
2021/12/03 01:28:18;;;;;;;1.65;0.40;;;;;;;0.87;73.01;99542.50;4962213;28;20522;-54
2021/12/03 01:30:45;;;;;;;1.52;1.25;;;;;;;0.87;73.50;99539.94;4970254;28;20042;-55
2021/12/03 01:33:13;;;;;;;1.27;0.40;;;;;;;0.87;73.04;99537.41;4964377;28;20372;-53
2021/12/03 01:35:40;;;;;;;2.05;0.60;;;;;;;0.88;72.91;99526.41;4964609;28;20491;-49
2021/12/03 01:38:07;;;;;;;1.30;0.32;;;;;;;0.89;73.86;99517.91;4963088;28;20117;-51
2021/12/03 01:40:36;;;;;;;0.88;0.40;;;;;;;0.87;73.34;99514.44;4967678;28;20062;-51
2021/12/03 01:43:05;;;;;;;4.40;0.63;;;;;;;0.88;73.93;99522.16;4965299;28;20050;-52
2021/12/03 01:45:41;;;;;;;2.00;0.40;;;;;;;0.87;73.33;99506.81;4966298;28;20054;-52
2021/12/03 01:48:08;;;;;;;3.33;0.73;;;;;;;0.88;73.16;99506.00;4962549;28;20101;-52
2021/12/03 01:50:39;;;;;;;3.42;0.70;;;;;;;0.87;73.20;99497.47;4961979;28;20615;-53
2021/12/03 01:53:08;;;;;;;1.25;0.60;;;;;;;0.86;74.66;99493.22;4964274;28;20058;-54
2021/12/03 01:55:36;;;;;;;6.32;0.80;;;;;;;0.88;73.72;99485.59;4967335;28;22073;-55
2021/12/03 01:58:04;;;;;;;3.15;0.98;;;;;;;0.87;74.14;99476.19;4970125;28;20050;-53
2021/12/03 02:00:34;;;;;;;3.08;1.20;;;;;;;0.85;74.30;99465.13;4968945;28;20050;-54
2021/12/03 02:03:02;;;;;;;1.60;1.13;;;;;;;0.82;75.44;99462.47;4971786;28;20058;-56
2021/12/03 02:05:28;;;;;;;1.65;1.05;;;;;;;0.84;74.88;99458.28;4968912;28;20047;-55
2021/12/03 02:07:55;;;;;;;2.92;0.47;;;;;;;0.82;74.17;99450.59;4966601;28;20055;-56
2021/12/03 02:10:23;;;;;;;1.55;0.55;;;;;;;0.83;74.49;99459.09;4965755;28;20043;-56
2021/12/03 02:12:50;;;;;;;2.55;0.73;;;;;;;0.84;74.77;99445.53;4972930;28;20043;-54
2021/12/03 02:15:18;;;;;;;3.95;1.58;;;;;;;0.81;76.12;99450.56;4966730;28;20106;-54
2021/12/03 02:17:45;;;;;;;2.33;1.00;;;;;;;0.82;75.93;99444.63;4964361;28;20446;-55
2021/12/03 02:20:13;;;;;;;5.65;0.88;;;;;;;0.80;76.12;99426.72;4968891;28;20059;-56
2021/12/03 02:22:41;;;;;;;2.72;0.80;;;;;;;0.81;75.87;99423.34;4966144;28;20051;-54
2021/12/03 02:25:11;;;;;;;1.55;0.70;;;;;;;0.80;76.13;99411.44;4967777;28;20050;-52
2021/12/03 02:27:37;;;;;;;5.22;0.60;;;;;;;0.82;76.26;99414.03;4967604;28;20055;-54
2021/12/03 02:30:06;;;;;;;8.85;0.70;;;;;;;0.83;76.22;99405.56;4966844;28;20043;-55
2021/12/03 02:32:33;;;;;;;4.72;0.68;;;;;;;0.85;76.42;99407.31;4967324;28;20050;-51
2021/12/03 02:35:00;;;;;;;4.82;1.10;;;;;;;0.84;76.78;99405.59;4967628;28;20055;-53
2021/12/03 02:37:26;;;;;;;3.67;0.88;;;;;;;0.86;76.68;99400.53;4968842;28;20611;-52
2021/12/03 02:39:53;;;;;;;3.38;1.45;;;;;;;0.89;76.12;99392.97;4967147;28;20698;-54
2021/12/03 02:42:20;;;;;;;5.63;1.00;;;;;;;0.89;76.94;99390.44;4966602;28;20074;-56
2021/12/03 02:44:48;;;;;;;4.03;1.70;;;;;;;0.91;77.51;99382.81;4968520;28;20051;-54
2021/12/03 02:47:14;;;;;;;6.38;1.33;;;;;;;0.91;76.19;99373.47;4967723;28;20090;-55
2021/12/03 02:49:42;;;;;;;6.18;1.60;;;;;;;0.91;77.03;99373.47;4965241;28;20047;-55
2021/12/03 02:52:10;;;;;;;5.68;1.83;;;;;;;0.91;76.48;99365.81;4969133;28;20059;-56
2021/12/03 02:54:37;;;;;;;5.28;1.75;;;;;;;0.95;76.11;99354.88;4967176;28;20057;-53
2021/12/03 02:57:04;;;;;;;6.60;1.92;;;;;;;0.97;77.50;99348.13;4966935;28;20117;-51
2021/12/03 02:59:32;;;;;;;3.92;1.85;;;;;;;0.97;77.36;99348.13;4969729;28;20113;-53
2021/12/03 03:02:03;;;;;;;6.07;2.83;;;;;;;0.97;77.04;99332.81;4966160;28;20106;-56
2021/12/03 03:04:49;;;;;;;11.90;2.28;;;;;;;0.98;78.30;99328.59;4965964;28;20042;-53
2021/12/03 03:07:16;;;;;;;11.13;2.75;;;;;;;0.98;77.88;99324.34;4966239;28;20121;-55
2021/12/03 03:09:45;;;;;;;6.85;2.58;;;;;;;0.99;77.31;99321.00;4968202;28;20054;-54
2021/12/03 03:12:13;;;;;;;4.35;2.17;;;;;;;0.98;78.26;99319.25;4968948;28;20066;-53
2021/12/03 03:14:45;;;;;;;5.82;1.95;;;;;;;0.99;78.84;99310.78;4966736;28;20046;-52
2021/12/03 03:17:13;;;;;;;5.43;2.13;;;;;;;1.01;78.55;99298.03;4978151;28;20050;-56
2021/12/03 03:19:40;;;;;;;7.38;2.45;;;;;;;1.04;77.95;99292.19;4961750;28;20047;-52
2021/12/03 03:22:07;;;;;;;3.45;2.58;;;;;;;1.04;79.49;99287.09;4966034;28;20059;-53
2021/12/03 03:24:33;;;;;;;5.40;1.80;;;;;;;1.03;78.55;99281.09;4964275;28;20090;-52
2021/12/03 03:27:01;;;;;;;5.05;2.40;;;;;;;1.07;77.88;99276.94;4956856;28;20331;-51
2021/12/03 03:29:29;;;;;;;5.50;2.33;;;;;;;1.09;78.24;99268.50;4964919;28;20051;-54
2021/12/03 03:31:56;;;;;;;7.43;2.90;;;;;;;1.12;78.63;99275.38;4966591;28;20047;-53
2021/12/03 03:34:22;;;;;;;6.63;2.60;;;;;;;1.11;78.62;99269.41;4967465;28;20122;-53
2021/12/03 03:36:49;;;;;;;9.65;4.00;;;;;;;1.13;78.12;99251.56;4966440;28;20054;-49
2021/12/03 03:39:16;;;;;;;6.22;3.22;;;;;;;1.14;79.14;99243.97;4968029;28;20070;-51
2021/12/03 03:41:43;;;;;;;9.15;2.38;;;;;;;1.17;78.82;99240.63;4965201;28;20073;-52
2021/12/03 03:44:10;;;;;;;4.97;2.42;;;;;;;1.19;78.93;99226.22;4961060;28;20122;-53
2021/12/03 03:46:38;;;;;;;4.93;2.00;;;;;;;1.20;78.96;99225.38;4967641;28;20065;-55
2021/12/03 03:49:05;;;;;;;3.15;1.40;;;;;;;1.20;80.18;99216.84;4962003;28;20505;-48
2021/12/03 03:51:32;;;;;;;7.88;1.33;;;;;;;1.20;79.42;99206.66;4964624;28;20534;-54
2021/12/03 03:53:59;;;;;;;3.20;1.85;;;;;;;1.22;78.67;99200.75;4965175;28;20046;-53
2021/12/03 03:56:27;;;;;;;2.97;1.38;;;;;;;1.24;78.76;99190.56;4962203;28;20587;-55
2021/12/03 03:58:54;;;;;;;4.50;2.03;;;;;;;1.24;79.40;99188.91;4965729;28;20664;-54
2021/12/03 04:01:21;;;;;;;4.63;1.52;;;;;;;1.26;79.71;99177.06;4964790;28;20384;-55
2021/12/03 04:03:48;;;;;;;2.83;1.40;;;;;;;1.28;78.78;99170.28;4963128;28;20038;-53
2021/12/03 04:06:18;;;;;;;4.70;2.22;;;;;;;1.31;78.79;99166.09;4960818;28;20059;-55
2021/12/03 04:08:46;;;;;;;2.55;1.00;;;;;;;1.31;79.13;99158.44;4967425;28;20062;-50
2021/12/03 04:11:16;;;;;;;4.07;1.48;;;;;;;1.33;79.68;99151.66;4959495;28;20706;-53
2021/12/03 04:13:43;;;;;;;2.72;1.20;;;;;;;1.33;79.29;99149.09;4965290;28;20498;-54
2021/12/03 04:16:10;;;;;;;3.08;1.27;;;;;;;1.31;80.14;99141.41;4965076;28;20062;-54
2021/12/03 04:18:37;;;;;;;2.00;0.95;;;;;;;1.32;80.53;99130.38;4960230;28;20055;-52
2021/12/03 04:21:04;;;;;;;2.83;1.17;;;;;;;1.33;80.18;99116.81;4966201;28;20047;-52
2021/12/03 04:23:30;;;;;;;1.52;0.70;;;;;;;1.33;80.76;99110.81;4963145;28;20487;-49
2021/12/03 04:25:57;;;;;;;1.73;0.60;;;;;;;1.32;80.24;99099.75;4964466;28;20058;-53
2021/12/03 04:28:24;;;;;;;2.25;1.23;;;;;;;1.35;80.45;99093.88;4963837;28;20507;-53
2021/12/03 04:30:52;;;;;;;1.20;0.70;;;;;;;1.33;80.95;99086.19;4955573;28;20059;-54
2021/12/03 04:33:20;;;;;;;1.25;0.52;;;;;;;1.34;80.85;99081.91;4965834;28;20061;-50
2021/12/03 04:35:47;;;;;;;1.60;0.65;;;;;;;1.35;80.26;99079.41;4963155;28;20039;-52
2021/12/03 04:38:14;;;;;;;1.33;0.60;;;;;;;1.37;81.33;99071.78;4967169;28;20059;-53
2021/12/03 04:40:41;;;;;;;1.13;0.60;;;;;;;1.39;80.80;99075.22;4965182;28;20054;-52
2021/12/03 04:43:08;;;;;;;0.65;0.40;;;;;;;1.40;80.58;99071.84;4965702;28;20109;-53
2021/12/03 04:45:35;;;;;;;2.28;0.95;;;;;;;1.41;81.34;99060.78;4964018;28;20051;-54
2021/12/03 04:48:04;;;;;;;1.27;0.63;;;;;;;1.45;81.77;99059.19;4960476;28;20557;-49
2021/12/03 04:50:34;;;;;;;1.27;0.63;;;;;;;1.49;80.45;99053.28;4978443;28;20047;-52
2021/12/03 04:53:02;;;;;;;3.05;0.77;;;;;;;1.49;80.79;99040.53;4964816;28;20046;-49
2021/12/03 04:55:29;;;;;;;2.60;1.25;;;;;;;1.51;81.42;99043.94;4964155;28;20063;-53
2021/12/03 04:57:56;;;;;;;3.10;1.52;;;;;;;1.52;80.36;99031.22;4963186;28;20046;-52
2021/12/03 05:00:29;;;;;;;3.22;1.30;;;;;;;1.57;81.64;99022.78;4965026;28;20058;-54
2021/12/03 05:02:56;;;;;;;3.25;1.27;;;;;;;1.61;80.47;99019.44;4970475;28;20082;-52
2021/12/03 05:05:25;;;;;;;3.33;1.17;;;;;;;1.63;81.16;99020.34;4966874;28;20082;-50
2021/12/03 05:07:57;;;;;;;3.35;1.75;;;;;;;1.67;80.27;99020.44;4968696;28;20054;-52
2021/12/03 05:10:26;;;;;;;1.42;0.80;;;;;;;1.69;81.78;99028.09;4968650;28;20133;-52
2021/12/03 05:13:00;;;;;;;3.67;1.30;;;;;;;1.70;80.68;99018.75;4966477;28;20133;-53
2021/12/03 05:15:30;;;;;;;;;;;;;;;1.70;81.81;99019.63;4969208;28;20043;-52
2021/12/03 05:17:58;;;;;;;3.50;1.58;;;;;;;1.73;81.44;99019.69;4968163;28;19944;-51
2021/12/03 05:20:24;;;;;;;4.13;1.70;;;;;;;1.76;80.40;99019.69;4971246;28;20054;-51
2021/12/03 05:22:53;;;;;;;1.75;0.70;;;;;;;1.79;81.71;99014.66;4968289;28;20051;-55
2021/12/03 05:25:21;;;;;;;2.33;1.20;;;;;;;1.82;80.66;99008.72;4968428;28;20047;-54
2021/12/03 05:27:49;;;;;;;1.65;1.35;;;;;;;1.82;80.87;99003.63;4966391;28;20043;-52
2021/12/03 05:30:16;;;;;;;1.00;0.45;;;;;;;1.83;82.34;99000.25;4979606;28;20050;-53
2021/12/03 05:32:43;;;;;;;1.75;0.55;;;;;;;1.84;81.54;98983.22;4974347;28;20042;-55
2021/12/03 05:35:10;;;;;;;0.77;0.52;;;;;;;1.85;81.81;98985.81;4971553;28;20422;-52
2021/12/03 05:37:37;;;;;;;0.60;0.52;;;;;;;1.88;81.60;98990.97;4975484;28;20591;-52
2021/12/03 05:40:06;;;;;;;1.45;0.52;;;;;;;1.92;81.62;98989.31;4975244;28;20046;-53
2021/12/03 05:42:33;;;;;;;2.17;1.08;;;;;;;1.94;82.39;98997.88;4971112;28;20046;-55
2021/12/03 05:44:59;;;;;;;1.67;0.82;;;;;;;1.98;82.22;98989.41;4972054;28;20051;-55
2021/12/03 05:47:26;;;;;;;2.38;1.45;;;;;;;2.01;81.48;98989.47;4970305;28;20043;-53
2021/12/03 05:49:53;;;;;;;2.35;1.17;;;;;;;2.04;82.00;98994.63;4970376;28;20054;-52
2021/12/03 05:52:19;;;;;;;1.48;0.50;;;;;;;2.05;81.40;98980.13;4971266;28;20054;-54
2021/12/03 05:54:46;;;;;;;1.40;0.52;;;;;;;2.06;82.45;98979.28;4972798;28;20049;-56
2021/12/03 05:57:13;;;;;;;1.67;0.60;;;;;;;2.06;81.78;98974.19;4969886;28;20066;-58
2021/12/03 05:59:40;;;;;;;1.30;0.68;;;;;;;2.10;81.25;98982.75;4969379;28;20351;-54
2021/12/03 06:02:07;;;;;;;1.75;0.70;;;;;;;2.11;81.96;98974.25;4971858;28;20057;-54
2021/12/03 06:04:34;;;;;;;3.20;1.75;;;;;;;2.15;81.34;98984.56;4972534;28;20050;-54
2021/12/03 06:07:01;;;;;;;6.35;3.53;;;;;;;2.17;81.54;98979.47;4972070;28;20094;-55
2021/12/03 06:09:27;;;;;;;6.15;2.65;;;;;;;2.19;80.95;98972.66;4971118;28;20101;-52
2021/12/03 06:11:54;;;;;;;4.07;1.77;;;;;;;2.22;80.75;98962.50;4968714;28;20051;-55
2021/12/03 06:14:21;;;;;;;4.38;2.17;;;;;;;2.23;81.06;98963.38;4971254;28;20054;-52
2021/12/03 06:16:47;;;;;;;3.70;2.10;;;;;;;2.24;81.02;98949.75;4971726;28;20051;-55
2021/12/03 06:19:14;;;;;;;4.72;2.22;;;;;;;2.24;81.98;98954.84;4969044;28;20680;-54
2021/12/03 06:21:41;;;;;;;4.38;2.28;;;;;;;2.25;81.45;98937.00;4971239;28;20050;-52
2021/12/03 06:24:07;;;;;;;6.47;1.48;;;;;;;2.26;81.53;98943.81;4970617;28;20059;-52
2021/12/03 06:26:34;;;;;;;4.88;2.42;;;;;;;2.27;81.37;98945.53;4971241;28;20464;-53
2021/12/03 06:29:01;;;;;;;7.43;3.20;;;;;;;2.31;80.93;98954.97;4969650;28;20046;-54
2021/12/03 06:31:27;;;;;;;1.65;0.93;;;;;;;2.34;81.48;98950.72;4972955;28;20055;-50
2021/12/03 06:33:54;;;;;;;2.80;1.17;;;;;;;2.37;81.76;98968.66;4971489;28;20051;-54
2021/12/03 06:36:20;;;;;;;1.75;0.88;;;;;;;2.40;80.79;98961.03;4969816;28;20089;-50
2021/12/03 06:38:47;;;;;;;1.40;0.47;;;;;;;2.42;81.50;98956.78;4970314;28;20046;-53
2021/12/03 06:41:14;;;;;;;1.05;0.47;;;;;;;2.43;81.09;98953.38;4969027;28;20054;-52
2021/12/03 06:43:40;;;;;;;1.48;0.85;;;;;;;2.46;80.99;98945.75;4968958;28;20043;-53
2021/12/03 06:46:07;;;;;;;1.30;0.70;;;;;;;2.47;82.30;98944.94;4967730;28;20059;-53
2021/12/03 06:48:34;;;;;;;1.95;0.70;;;;;;;2.49;81.50;98948.34;4970022;28;20133;-54
2021/12/03 06:51:00;;;;;;;1.98;0.82;;;;;;;2.52;82.03;98935.63;4966766;28;20065;-54
2021/12/03 06:53:38;;;;;;;1.95;0.75;;;;;;;2.57;80.69;98939.06;4968521;28;20062;-50
2021/12/03 06:56:08;;;;;;;2.03;0.70;;;;;;;2.61;80.89;98954.47;4969487;28;20038;-54
2021/12/03 06:58:35;;;;;;;2.10;1.10;;;;;;;2.63;82.01;98963.03;4966676;28;20050;-54
2021/12/03 07:01:02;;;;;;;2.75;1.00;;;;;;;2.63;81.41;98953.63;4969468;28;20047;-53
2021/12/03 07:03:29;;;;;;;2.08;0.88;;;;;;;2.66;81.91;98947.69;4971699;28;20058;-49
2021/12/03 07:05:56;;;;;;;1.80;0.95;;;;;;;2.68;82.23;98940.91;4969256;28;20057;-54
2021/12/03 07:08:23;;;;;;;2.50;1.00;;;;;;;2.70;81.38;98959.66;4960810;28;20058;-53
2021/12/03 07:10:49;;;;;;;2.33;1.10;;;;;;;2.73;81.29;98959.72;4969158;28;20051;-54
2021/12/03 07:13:16;;;;;;;2.25;0.93;;;;;;;2.74;81.70;98951.22;4967937;28;20515;-54
2021/12/03 07:15:42;;;;;;;2.25;1.02;;;;;;;2.77;82.08;98941.00;4968076;28;20089;-55
2021/12/03 07:18:09;;;;;;;2.05;1.00;;;;;;;2.80;80.86;98945.28;4967957;28;20074;-53
2021/12/03 07:20:36;;;;;;;2.70;1.45;;;;;;;2.83;81.49;98935.97;4970030;28;20062;-50
2021/12/03 07:23:03;;;;;;;3.15;1.10;;;;;;;2.86;81.66;98934.28;4968933;28;20051;-52
2021/12/03 07:25:29;;;;;;;2.42;1.42;;;;;;;2.88;81.94;98932.59;4971268;28;20047;-54
2021/12/03 07:27:56;;;;;;;3.63;1.33;;;;;;;2.91;81.83;98932.63;4973344;28;20057;-51
2021/12/03 07:30:23;;;;;;;1.80;0.90;;;;;;;2.95;80.73;98934.38;4968596;28;20558;-54
2021/12/03 07:32:49;;;;;;;4.47;1.40;;;;;;;2.99;81.37;98925.91;4971355;28;20779;-52
2021/12/03 07:35:16;;;;;;;2.33;1.08;;;;;;;3.00;80.93;98935.28;4968102;28;20053;-53
2021/12/03 07:37:43;;;;;;;2.85;1.30;;;;;;;3.04;80.77;98929.34;4966074;28;20133;-54
2021/12/03 07:40:11;;;;;;;3.20;1.33;;;;;;;3.10;81.92;98931.09;4967469;28;20050;-52
2021/12/03 07:42:38;;;;;;;3.22;1.02;;;;;;;3.11;81.59;98937.09;4971163;28;20051;-52
2021/12/03 07:45:08;;;;;;;3.60;1.23;;;;;;;3.16;80.50;98945.66;4964819;28;20042;-56
2021/12/03 07:47:37;;;;;;;3.15;1.48;;;;;;;3.19;80.69;98944.00;4968888;28;20382;-50
2021/12/03 07:50:06;;;;;;;3.38;1.50;;;;;;;3.24;81.02;98945.75;4968936;28;20047;-49
2021/12/03 07:52:34;;;;;;;3.63;1.20;;;;;;;3.27;81.32;98931.25;4973887;28;20398;-55
2021/12/03 07:55:01;;;;;;;2.35;0.90;;;;;;;3.30;81.09;98941.53;4966342;28;20051;-53
2021/12/03 07:57:27;;;;;;;2.78;1.23;;;;;;;3.33;81.64;98946.69;4967089;28;20055;-51
2021/12/03 07:59:54;;;;;;;2.97;1.30;;;;;;;3.37;80.83;98952.69;4966065;28;20063;-51
2021/12/03 08:02:20;;;;;;;4.05;1.77;;;;;;;3.41;81.77;98938.22;4965774;28;20059;-52
2021/12/03 08:04:47;;;;;;;2.60;1.10;;;;;;;3.44;81.05;98939.09;4963399;28;20063;-53
2021/12/03 08:07:14;;;;;;;3.60;1.95;;;;;;;3.48;80.71;98940.00;4962579;28;20051;-52
2021/12/03 08:09:40;;;;;;;3.22;1.55;;;;;;;3.52;81.30;98930.63;4963566;28;20434;-53
2021/12/03 08:12:08;;;;;;;3.92;1.45;;;;;;;3.54;81.25;98944.28;4967152;28;20061;-54
2021/12/03 08:14:34;;;;;;;5.20;1.40;;;;;;;3.58;80.59;98936.63;4966480;28;20478;-52
2021/12/03 08:17:01;;;;;;;4.28;1.45;;;;;;;3.62;81.56;98929.00;4970422;28;20487;-54
2021/12/03 08:19:28;;;;;;;3.42;1.65;;;;;;;3.66;81.08;98925.59;4966019;28;20049;-54
2021/12/03 08:21:54;;;;;;;2.92;1.00;;;;;;;3.68;81.57;98918.81;4965318;28;20576;-53
2021/12/03 08:24:21;;;;;;;3.88;1.80;;;;;;;3.71;81.22;98922.22;4964360;28;21478;-53
2021/12/03 08:26:48;;;;;;;4.68;1.55;;;;;;;3.75;80.88;98935.91;4968787;28;20047;-53
2021/12/03 08:29:15;;;;;;;4.32;1.75;;;;;;;3.77;81.23;98926.53;4969287;28;20108;-53
2021/12/03 08:31:41;;;;;;;3.65;1.60;;;;;;;3.81;80.84;98922.28;4968734;28;20047;-53
2021/12/03 08:34:08;;;;;;;4.65;2.22;;;;;;;3.84;81.01;98928.31;4969040;28;20062;-53
2021/12/03 08:36:36;;;;;;;5.32;1.73;;;;;;;3.88;81.36;98928.31;4965298;28;20053;-50
2021/12/03 08:39:04;;;;;;;6.10;1.98;;;;;;;3.92;80.54;98925.75;4963332;28;20051;-50
2021/12/03 08:41:31;;;;;;;4.32;1.92;;;;;;;3.92;81.24;98930.06;4967177;28;20592;-51
2021/12/03 08:43:57;;;;;;;5.80;2.25;;;;;;;3.95;81.28;98924.97;4970041;28;20098;-53
2021/12/03 08:46:31;;;;;;;5.45;1.63;;;;;;;3.98;80.90;98932.63;4972858;28;20053;-55
2021/12/03 08:49:25;;;;;;;5.13;2.03;;;;;;;4.01;81.34;98936.94;4962354;28;20054;-52
2021/12/03 08:52:30;;;;;;;4.78;1.60;;;;;;;4.06;81.07;98943.78;4965093;28;20362;-52
2021/12/03 08:54:52;;;;;;;7.35;2.65;;;;;;;4.07;81.25;98935.28;4962098;28;20053;-54
2021/12/03 08:57:26;;;;;;;13.68;3.67;;;;;;;4.11;81.33;98937.00;4964513;28;20057;-52
2021/12/03 08:59:58;;;;;;;21.95;6.18;;;;;;;4.16;81.55;98923.34;4967671;28;20059;-52
2021/12/03 09:02:25;;;;;;;21.58;5.53;;;;;;;4.18;80.88;98912.25;4961881;28;20049;-50
2021/12/03 09:04:52;;;;;;;22.33;5.57;;;;;;;4.22;81.11;98918.28;4969454;28;20043;-53
2021/12/03 09:07:18;;;;;;;27.02;9.55;;;;;;;4.24;81.09;98914.00;4970220;28;20391;-55
2021/12/03 09:09:45;;;;;;;13.98;4.65;;;;;;;4.27;80.76;98906.31;4969098;28;20075;-51
2021/12/03 09:12:12;;;;;;;10.73;3.80;;;;;;;4.29;81.31;98925.13;4971814;28;20061;-52
2021/12/03 09:14:45;;;;;;;6.85;2.72;;;;;;;4.32;81.06;98925.13;4973295;28;20057;-52
2021/12/03 09:20:10;;;;;;;7.57;2.47;;;;;;;4.39;81.28;98927.75;4966067;28;20070;-51
2021/12/03 09:22:55;;;;;;;9.25;2.40;;;;;;;4.44;81.22;98920.91;4974260;28;20109;-54
2021/12/03 09:25:30;;;;;;;6.35;2.55;;;;;;;4.47;81.15;98933.75;4965831;28;20043;-53
2021/12/03 09:27:59;;;;;;;6.65;2.55;;;;;;;4.50;80.83;98941.47;4965633;28;20055;-52
2021/12/03 09:30:28;;;;;;;5.35;2.00;;;;;;;4.55;80.91;98932.06;4967926;28;20136;-53
2021/12/03 09:32:57;;;;;;;6.25;2.33;;;;;;;4.57;81.28;98940.63;4967645;28;20046;-55
2021/12/03 09:35:24;;;;;;;8.27;2.38;;;;;;;4.60;80.81;98932.94;4968779;28;20061;-53
2021/12/03 09:37:51;;;;;;;4.00;1.45;;;;;;;4.63;80.97;98930.38;4967081;28;20059;-53
2021/12/03 09:40:21;;;;;;;8.98;2.13;;;;;;;4.67;80.87;98921.00;4965647;28;20109;-52
2021/12/03 09:42:48;;;;;;;7.28;2.83;;;;;;;4.69;81.36;98918.44;4971624;28;20105;-52
2021/12/03 09:45:15;;;;;;;9.52;3.60;;;;;;;4.73;80.60;98909.91;4964812;28;20454;-51
2021/12/03 09:47:43;;;;;;;7.07;2.50;;;;;;;4.77;80.66;98916.75;4970096;28;20058;-52
2021/12/03 09:50:14;;;;;;;9.90;3.10;;;;;;;4.82;81.15;98920.19;4963291;28;20054;-51
2021/12/03 09:53:08;;;;;;;9.15;3.03;;;;;;;4.84;80.72;98921.06;4971264;28;20054;-53
2021/12/03 09:55:30;;;;;;;8.50;3.05;;;;;;;4.87;81.26;98928.75;4961787;28;20047;-50
2021/12/03 09:58:14;;;;;;;10.70;2.95;;;;;;;4.91;80.49;98928.75;4969174;28;20138;-55
2021/12/03 10:00:50;;;;;;;9.40;3.17;;;;;;;4.96;80.96;98921.94;4967411;28;20047;-52
2021/12/03 10:03:46;;;;;;;9.73;3.30;;;;;;;4.98;80.84;98920.22;4966962;28;20577;-53
2021/12/03 10:07:28;;;;;;;9.27;3.10;;;;;;;5.01;80.82;98909.97;4968296;28;20043;-55
2021/12/03 10:14:57;;;;;;;12.85;4.03;;;;;;;5.20;81.14;98915.13;4963768;28;20121;-54
2021/12/03 10:20:21;;;;;;;12.18;3.80;;;;;;;5.31;81.00;98918.56;4964311;28;20050;-53
2021/12/03 10:24:07;;;;;;;12.07;3.67;;;;;;;5.34;81.11;98918.53;4967803;28;20054;-53
2021/12/03 10:29:28;;;;;;;12.35;4.53;;;;;;;5.47;80.25;98923.69;4967449;28;20054;-52
2021/12/03 10:32:20;;;;;;;10.95;4.07;;;;;;;5.53;79.88;98923.69;4970678;28;20066;-53
2021/12/03 10:35:31;;;;;;;11.10;3.85;;;;;;;5.57;81.27;98927.94;4964459;28;20082;-52
2021/12/03 10:41:03;;;;;;;11.55;3.92;;;;;;;5.70;80.90;98910.81;4967175;28;20050;-51
2021/12/03 10:43:44;;;;;;;12.98;4.47;;;;;;;5.79;80.93;98917.66;4969021;28;20097;-53
2021/12/03 10:46:26;;;;;;;12.13;3.92;;;;;;;5.88;81.03;98920.22;4966476;28;20113;-52
2021/12/03 10:49:21;;;;;;;13.63;4.05;;;;;;;5.95;80.68;98925.34;4969054;28;20395;-55
2021/12/03 10:51:52;;;;;;;;;;;;;;;5.96;80.96;98929.63;4981035;28;20043;-54
2021/12/03 10:55:11;;;;;;;8.55;3.28;;;;;;;6.02;79.69;98917.59;4969360;28;19926;-55
2021/12/03 10:57:43;;;;;;;7.75;2.72;;;;;;;6.05;80.00;98932.22;4965844;28;20077;-54
2021/12/03 11:04:22;;;;;;;11.65;5.05;;;;;;;6.09;80.15;98939.06;4966344;28;20064;-54
2021/12/03 11:06:34;;;;;;;9.07;3.60;;;;;;;6.12;80.22;98928.75;4970862;28;20091;-55
2021/12/03 11:12:21;;;;;;;10.23;4.20;;;;;;;6.17;79.42;98927.06;4967947;28;20043;-54
2021/12/03 11:15:16;;;;;;;12.25;4.20;;;;;;;6.15;81.04;98927.91;4967612;28;20113;-52
2021/12/03 11:21:19;;;;;;;10.40;4.60;;;;;;;6.23;79.45;98920.16;4961963;28;20110;-53
2021/12/03 11:29:01;;;;;;;14.70;6.30;;;;;;;6.31;80.58;98923.56;4958681;28;20046;-53
2021/12/03 11:33:40;;;;;;;16.25;5.85;;;;;;;6.34;80.62;98918.41;4966314;28;20134;-52
2021/12/03 11:35:01;;;;;;;37.55;14.57;;;;;;;6.39;79.90;98929.53;4963653;28;20104;-56
2021/12/03 11:43:09;;;;;;;18.05;7.85;;;;;;;6.49;79.47;98916.66;4974677;28;20054;-54
2021/12/03 12:04:21;;;;;;;113.43;35.35;;;;;;;6.54;79.25;98878.88;4955319;28;20058;-50
2021/12/03 12:15:48;;;;;;;102.85;38.90;;;;;;;6.63;79.15;98868.56;4954143;28;20439;-54
2021/12/03 13:01:34;;;;;;;10.18;4.20;;;;;;;7.11;78.51;98843.34;4967084;28;20046;-53
2021/12/03 13:10:31;;;;;;;12.85;5.13;;;;;;;7.16;78.27;98845.00;4963452;28;20050;-54
2021/12/03 13:18:41;;;;;;;20.83;9.07;;;;;;;7.12;78.39;98843.34;4955057;28;20053;-51
2021/12/03 13:26:58;;;;;;;22.75;8.23;;;;;;;7.10;77.98;98816.75;4963319;28;20051;-54
2021/12/03 13:30:24;;;;;;;35.05;12.95;;;;;;;7.12;78.77;98827.88;4962936;28;20047;-52
2021/12/03 14:01:22;;;;;;;16.70;7.90;;;;;;;7.06;78.49;98794.47;4964576;28;20054;-50
2021/12/03 14:07:05;;;;;;;10.20;4.10;;;;;;;7.05;78.80;98787.59;4960423;28;20038;-53
2021/12/03 14:14:14;;;;;;;9.73;4.35;;;;;;;7.03;78.64;98784.19;4967226;28;20050;-54
2021/12/03 14:22:03;;;;;;;10.52;4.47;;;;;;;6.99;79.85;98788.50;4965711;28;20051;-50
2021/12/03 14:25:35;;;;;;;11.43;4.88;;;;;;;6.99;79.13;98785.94;4975161;28;20074;-55
2021/12/03 14:35:59;;;;;;;14.45;5.15;;;;;;;6.90;79.92;98763.72;4979462;28;20050;-54
2021/12/03 14:38:11;;;;;;;12.27;5.03;;;;;;;6.88;79.30;98765.44;4965458;28;20058;-51
2021/12/03 14:41:05;;;;;;;21.25;9.30;;;;;;;6.87;79.62;98768.88;4947479;28;20098;-55
2021/12/03 14:43:31;;;;;;;26.80;11.10;;;;;;;6.87;78.01;98762.88;4978508;28;20046;-53
2021/12/03 14:46:37;;;;;;;36.08;14.57;;;;;;;6.85;79.78;98750.00;4967280;28;20365;-53
2021/12/03 14:52:10;;;;;;;186.95;74.82;;;;;;;6.85;78.41;98749.19;4962386;28;20050;-55
2021/12/03 14:57:45;;;;;;;29.25;15.43;;;;;;;6.83;79.12;98731.19;4964406;28;20515;-55